Metar z połowy godziny Komunikat METAR ze strony awiacja.imgw.pl Metar G00 EPWR METAR EPWR 261830Z 27009KT 9999 FEW047 M01/M03 Q1012 R11/19//95 =